createdAt,value
2023-02-27T00:00:59.416Z,57.70
2023-02-27T00:03:26.342Z,57.70
2023-02-27T00:05:53.582Z,57.90
2023-02-27T00:08:20.316Z,58.00
2023-02-27T00:10:47.133Z,57.90
2023-02-27T00:13:14.098Z,58.00
2023-02-27T00:15:41.105Z,58.10
2023-02-27T00:18:08.279Z,58.10
2023-02-27T00:20:37.990Z,58.10
2023-02-27T00:23:09.511Z,58.10
2023-02-27T00:25:36.673Z,58.10
2023-02-27T00:28:04.623Z,58.10
2023-02-27T00:30:32.431Z,58.20
2023-02-27T00:32:59.285Z,58.20
2023-02-27T00:35:26.415Z,58.20
2023-02-27T00:37:53.519Z,58.20
2023-02-27T00:40:20.448Z,58.20
2023-02-27T00:42:49.294Z,58.20
2023-02-27T00:45:16.134Z,58.20
2023-02-27T00:47:42.989Z,58.20
2023-02-27T00:50:11.178Z,58.10
2023-02-27T00:52:38.044Z,58.00
2023-02-27T00:55:05.542Z,58.00
2023-02-27T00:57:32.475Z,58.00
2023-02-27T00:59:59.367Z,58.10
2023-02-27T01:02:26.335Z,58.20
2023-02-27T01:04:56.153Z,58.40
2023-02-27T01:07:24.135Z,58.40
2023-02-27T01:09:51.010Z,58.60
2023-02-27T01:12:17.878Z,58.70
2023-02-27T01:14:44.644Z,58.70
2023-02-27T01:17:12.019Z,58.80
2023-02-27T01:19:39.190Z,58.90
2023-02-27T01:22:06.528Z,59.00
2023-02-27T01:24:33.667Z,59.10
2023-02-27T01:27:00.521Z,59.20
2023-02-27T01:29:27.314Z,59.30
2023-02-27T01:31:54.723Z,59.40
2023-02-27T01:34:21.598Z,59.70
2023-02-27T01:36:48.404Z,59.80
2023-02-27T01:39:16.541Z,59.90
2023-02-27T01:41:43.334Z,59.90
2023-02-27T01:44:12.872Z,60.00
2023-02-27T01:46:41.287Z,60.00
2023-02-27T01:49:11.274Z,60.00
2023-02-27T01:51:46.179Z,60.00
2023-02-27T01:54:19.302Z,60.00
2023-02-27T01:56:47.106Z,59.90
2023-02-27T01:59:16.098Z,59.70
2023-02-27T02:01:43.322Z,59.50
2023-02-27T02:04:17.812Z,59.50
2023-02-27T02:06:49.456Z,59.60
2023-02-27T02:09:18.592Z,59.60
2023-02-27T02:11:45.698Z,59.60
2023-02-27T02:14:12.708Z,59.70
2023-02-27T02:16:39.879Z,59.70
2023-02-27T02:19:31.487Z,59.80
2023-02-27T02:22:07.761Z,59.90
2023-02-27T02:25:32.049Z,59.90
2023-02-27T02:28:20.000Z,60.10
2023-02-27T02:31:11.615Z,60.20
2023-02-27T02:33:53.742Z,60.40
2023-02-27T02:36:58.291Z,60.40
2023-02-27T02:39:48.347Z,60.50
2023-02-27T02:42:15.115Z,60.60
2023-02-27T02:45:08.566Z,60.70
2023-02-27T02:47:54.304Z,60.80
2023-02-27T02:50:30.284Z,60.90
2023-02-27T02:53:04.936Z,61.00
2023-02-27T02:56:05.292Z,61.10
2023-02-27T02:58:45.444Z,61.20
2023-02-27T03:01:16.989Z,61.20
2023-02-27T03:04:13.180Z,61.20
2023-02-27T03:06:56.328Z,61.50
2023-02-27T03:09:30.565Z,61.50
2023-02-27T03:12:01.048Z,61.70
2023-02-27T03:14:37.299Z,61.80
2023-02-27T03:17:10.928Z,62.00
2023-02-27T03:20:01.929Z,62.10
2023-02-27T03:22:34.254Z,62.00
2023-02-27T03:25:04.094Z,62.10
2023-02-27T03:27:36.034Z,62.10
2023-02-27T03:30:15.852Z,62.20
2023-02-27T03:33:06.999Z,62.30
2023-02-27T03:35:59.446Z,62.30
2023-02-27T03:38:50.450Z,62.40
2023-02-27T03:41:32.840Z,62.40
2023-02-27T03:44:25.490Z,62.40
2023-02-27T03:46:52.403Z,62.40
2023-02-27T03:49:19.623Z,62.40
2023-02-27T03:51:49.127Z,62.50
2023-02-27T03:54:44.668Z,62.60
2023-02-27T03:57:15.124Z,62.70
2023-02-27T03:59:42.177Z,62.80
2023-02-27T04:02:09.814Z,62.80
2023-02-27T04:04:37.561Z,62.80
2023-02-27T04:07:33.700Z,62.70
2023-02-27T04:10:26.997Z,62.60
2023-02-27T04:13:15.221Z,62.70
2023-02-27T04:16:26.821Z,62.90
2023-02-27T04:19:04.269Z,63.00
2023-02-27T04:21:51.850Z,63.00
2023-02-27T04:24:56.422Z,63.00
2023-02-27T04:28:08.139Z,62.90
2023-02-27T04:30:47.221Z,62.90
2023-02-27T04:33:38.655Z,63.10
2023-02-27T04:36:16.515Z,63.30
2023-02-27T04:38:53.512Z,63.40
2023-02-27T04:41:29.253Z,63.40
2023-02-27T04:43:58.115Z,63.40
2023-02-27T04:46:28.986Z,63.50
2023-02-27T04:49:04.261Z,63.60
2023-02-27T04:51:42.607Z,63.70
2023-02-27T04:54:16.884Z,63.70
2023-02-27T04:56:57.476Z,64.00
2023-02-27T04:59:28.313Z,64.00
2023-02-27T05:02:02.813Z,64.00
2023-02-27T05:04:35.299Z,64.10
2023-02-27T05:07:05.493Z,64.10
2023-02-27T05:09:43.757Z,64.00
2023-02-27T05:12:25.461Z,64.10
2023-02-27T05:15:13.066Z,64.10
2023-02-27T05:18:04.256Z,64.10
2023-02-27T05:20:46.092Z,64.00
2023-02-27T05:23:17.816Z,63.90
2023-02-27T05:26:17.398Z,63.90
2023-02-27T05:28:53.420Z,63.90
2023-02-27T05:31:26.446Z,63.80
2023-02-27T05:34:19.740Z,63.90
2023-02-27T05:37:08.820Z,64.00
2023-02-27T05:39:39.124Z,64.00
2023-02-27T05:42:15.586Z,64.00
2023-02-27T05:44:47.297Z,63.90
2023-02-27T05:47:19.996Z,64.00
2023-02-27T05:49:54.833Z,64.00
2023-02-27T05:52:25.380Z,64.10
2023-02-27T05:55:14.299Z,64.20
2023-02-27T05:57:43.859Z,64.20
2023-02-27T06:00:14.191Z,64.30
2023-02-27T06:02:43.699Z,64.30
2023-02-27T06:05:15.539Z,64.30
2023-02-27T06:07:42.424Z,64.40
2023-02-27T06:10:14.195Z,64.40
2023-02-27T06:12:42.246Z,64.40
2023-02-27T06:15:10.030Z,64.50
2023-02-27T06:17:36.890Z,64.60
2023-02-27T06:20:04.172Z,64.70
2023-02-27T06:22:30.983Z,64.70
2023-02-27T06:24:57.703Z,64.80
2023-02-27T06:27:26.626Z,64.80
2023-02-27T06:29:54.329Z,64.90
2023-02-27T06:32:21.857Z,65.00
2023-02-27T06:34:48.909Z,65.00
2023-02-27T06:37:15.702Z,65.10
2023-02-27T06:39:42.434Z,65.20
2023-02-27T06:42:09.250Z,65.40
2023-02-27T06:44:36.265Z,65.50
2023-02-27T06:47:02.958Z,65.80
2023-02-27T06:49:29.686Z,65.90
2023-02-27T06:51:56.576Z,66.10
2023-02-27T06:54:23.455Z,66.20
2023-02-27T06:56:51.845Z,66.20
2023-02-27T06:59:18.838Z,66.30
2023-02-27T07:01:45.740Z,66.30
2023-02-27T07:04:14.966Z,66.40
2023-02-27T07:07:34.789Z,66.50
2023-02-27T07:09:29.248Z,66.50
2023-02-27T07:11:56.142Z,66.60
2023-02-27T07:14:23.117Z,66.80
2023-02-27T07:16:53.988Z,67.20
2023-02-27T07:19:23.996Z,67.80
2023-02-27T07:21:51.363Z,68.70
2023-02-27T07:24:18.240Z,69.40
2023-02-27T07:26:44.994Z,69.90
2023-02-27T07:29:12.285Z,70.00
2023-02-27T07:31:39.169Z,70.20
2023-02-27T07:34:06.078Z,70.60
2023-02-27T07:36:34.024Z,70.90
2023-02-27T07:39:00.804Z,70.80
2023-02-27T07:41:30.812Z,70.30
2023-02-27T07:44:00.394Z,69.00
2023-02-27T07:46:27.833Z,67.80
2023-02-27T07:48:54.974Z,66.70
2023-02-27T07:51:21.971Z,66.10
2023-02-27T07:53:48.828Z,65.80
2023-02-27T07:56:15.770Z,65.40
2023-02-27T07:58:42.637Z,64.60
2023-02-27T08:01:09.497Z,64.20
2023-02-27T08:03:36.258Z,63.80
2023-02-27T08:06:03.222Z,63.20
2023-02-27T08:08:30.067Z,62.80
2023-02-27T08:10:56.983Z,62.40
2023-02-27T08:13:55.688Z,62.20
2023-02-27T08:16:11.164Z,62.30
2023-02-27T08:18:38.112Z,62.20
2023-02-27T08:21:05.317Z,62.30
2023-02-27T08:23:34.418Z,62.40
2023-02-27T08:26:02.147Z,62.50
2023-02-27T08:28:29.083Z,63.10
2023-02-27T08:30:55.976Z,64.20
2023-02-27T08:33:23.778Z,64.60
2023-02-27T08:35:50.747Z,66.30
2023-02-27T08:38:17.552Z,66.80
2023-02-27T08:40:44.283Z,66.20
2023-02-27T08:43:11.028Z,66.10
2023-02-27T08:45:38.026Z,65.40
2023-02-27T08:48:05.066Z,63.70
2023-02-27T08:50:31.913Z,61.40
2023-02-27T08:52:58.766Z,56.20
2023-02-27T08:55:25.545Z,54.60
2023-02-27T08:57:52.419Z,53.60
2023-02-27T09:00:19.736Z,52.20
2023-02-27T09:02:46.627Z,51.90
2023-02-27T09:05:13.613Z,49.80
2023-02-27T09:07:42.062Z,48.30
2023-02-27T09:10:10.189Z,48.00
2023-02-27T09:12:37.609Z,47.60
2023-02-27T09:15:06.076Z,46.70
2023-02-27T09:17:32.977Z,45.20
2023-02-27T09:19:59.849Z,43.30
2023-02-27T09:22:26.708Z,41.90
2023-02-27T09:24:53.493Z,41.80
2023-02-27T09:27:20.304Z,40.40
2023-02-27T09:29:48.916Z,40.90
2023-02-27T09:32:16.098Z,40.90
2023-02-27T09:34:42.952Z,40.00
2023-02-27T09:37:09.722Z,38.90
2023-02-27T09:39:36.481Z,40.00
2023-02-27T09:42:17.938Z,40.40
2023-02-27T09:44:47.829Z,39.10
2023-02-27T09:47:24.489Z,38.50
2023-02-27T09:49:58.887Z,37.50
2023-02-27T09:52:26.940Z,37.00
2023-02-27T09:54:55.127Z,36.20
2023-02-27T09:57:45.340Z,35.20
2023-02-27T10:00:19.764Z,33.50
2023-02-27T10:03:06.419Z,34.00
2023-02-27T10:05:43.348Z,34.40
2023-02-27T10:08:21.947Z,33.60
2023-02-27T10:11:07.836Z,32.60
2023-02-27T10:13:49.707Z,32.50
2023-02-27T10:16:20.133Z,31.70
2023-02-27T10:18:59.999Z,30.50
2023-02-27T10:21:53.541Z,30.10
2023-02-27T10:24:27.670Z,29.70
2023-02-27T10:26:57.627Z,30.30
2023-02-27T10:29:41.598Z,29.10
2023-02-27T10:32:14.039Z,28.60
2023-02-27T10:34:43.531Z,30.10
2023-02-27T10:37:14.956Z,30.30
2023-02-27T10:39:57.509Z,29.90
2023-02-27T10:42:31.942Z,29.70
2023-02-27T10:44:58.882Z,29.80
2023-02-27T10:47:26.398Z,29.10
2023-02-27T10:49:54.800Z,28.40
2023-02-27T10:52:22.106Z,28.40
2023-02-27T10:54:49.030Z,28.40
2023-02-27T10:57:27.391Z,27.90
2023-02-27T11:00:00.889Z,27.70
2023-02-27T11:02:50.268Z,28.10
2023-02-27T11:05:25.840Z,28.20
2023-02-27T11:07:53.656Z,29.00
2023-02-27T11:10:24.303Z,30.90
2023-02-27T11:13:00.608Z,30.30
2023-02-27T11:15:33.560Z,30.50
2023-02-27T11:18:26.301Z,30.30
2023-02-27T11:20:54.746Z,31.00
2023-02-27T11:23:25.176Z,31.70
2023-02-27T11:26:08.549Z,32.40
2023-02-27T11:28:35.413Z,33.10
2023-02-27T11:31:07.416Z,34.30
2023-02-27T11:33:39.486Z,36.10
2023-02-27T11:36:07.048Z,36.10
2023-02-27T11:38:34.763Z,32.70
2023-02-27T11:41:06.787Z,31.70
2023-02-27T11:43:41.851Z,31.60
2023-02-27T11:46:40.902Z,31.90
2023-02-27T11:49:31.857Z,32.40
2023-02-27T11:52:12.107Z,33.10
2023-02-27T11:54:58.706Z,34.10
2023-02-27T11:57:34.833Z,33.10
2023-02-27T12:00:08.333Z,32.70
2023-02-27T12:03:02.121Z,31.60
2023-02-27T12:05:39.027Z,31.00
2023-02-27T12:08:17.297Z,30.80
2023-02-27T12:10:50.393Z,29.90
2023-02-27T12:13:23.253Z,30.70
2023-02-27T12:16:10.289Z,30.30
2023-02-27T12:18:47.645Z,29.60
2023-02-27T12:21:26.457Z,28.40
2023-02-27T12:24:08.404Z,28.00
2023-02-27T12:27:01.059Z,27.60
2023-02-27T12:29:44.127Z,27.00
2023-02-27T12:32:30.433Z,27.40
2023-02-27T12:35:06.322Z,27.20
2023-02-27T12:37:36.102Z,27.20
2023-02-27T12:40:10.818Z,27.60
2023-02-27T12:43:18.690Z,28.20
2023-02-27T12:46:07.181Z,27.90
2023-02-27T12:48:40.194Z,28.30
2023-02-27T12:51:13.311Z,28.10
2023-02-27T12:54:01.894Z,27.30
2023-02-27T12:56:47.654Z,27.30
2023-02-27T12:59:39.050Z,27.40
2023-02-27T13:02:33.690Z,26.60
2023-02-27T13:05:17.538Z,26.10
2023-02-27T13:08:06.708Z,26.70
2023-02-27T13:11:06.032Z,27.80
2023-02-27T13:13:43.907Z,26.60
2023-02-27T13:16:31.660Z,26.70
2023-02-27T13:19:15.855Z,27.10
2023-02-27T13:22:16.614Z,28.10
2023-02-27T13:24:49.395Z,28.40
2023-02-27T13:27:27.392Z,30.20
2023-02-27T13:30:03.470Z,29.60
2023-02-27T13:32:47.174Z,29.60
2023-02-27T13:35:28.278Z,30.90
2023-02-27T13:38:05.332Z,31.90
2023-02-27T13:40:41.132Z,31.40
2023-02-27T13:43:28.233Z,31.70
2023-02-27T13:46:16.768Z,30.40
2023-02-27T13:48:46.181Z,29.70
2023-02-27T13:51:35.083Z,30.00
2023-02-27T13:54:13.934Z,30.90
2023-02-27T13:56:51.330Z,31.60
2023-02-27T13:59:36.591Z,32.70
2023-02-27T14:02:56.494Z,33.30
2023-02-27T14:05:34.905Z,33.90
2023-02-27T14:08:19.634Z,34.60
2023-02-27T14:11:00.826Z,35.70
2023-02-27T14:13:57.712Z,35.90
2023-02-27T14:16:39.958Z,35.70
2023-02-27T14:19:16.318Z,36.00
2023-02-27T14:21:52.483Z,36.90
2023-02-27T14:24:23.876Z,35.70
2023-02-27T14:26:53.163Z,35.30
2023-02-27T14:29:24.438Z,35.10
2023-02-27T14:31:54.132Z,34.90
2023-02-27T14:34:22.749Z,34.30
2023-02-27T14:36:55.568Z,33.20
2023-02-27T14:39:37.466Z,33.00
2023-02-27T14:42:39.943Z,33.30
2023-02-27T14:45:17.784Z,33.00
2023-02-27T14:47:46.414Z,33.30
2023-02-27T14:50:28.166Z,33.70
2023-02-27T14:52:55.532Z,33.60
2023-02-27T14:55:30.200Z,33.30
2023-02-27T14:58:08.927Z,34.40
2023-02-27T15:00:39.466Z,35.50
2023-02-27T15:03:22.582Z,35.60
2023-02-27T15:05:57.584Z,34.90
2023-02-27T15:08:28.435Z,33.70
2023-02-27T15:10:57.322Z,33.20
2023-02-27T15:13:31.824Z,33.00
2023-02-27T15:16:21.799Z,33.00
2023-02-27T15:19:12.765Z,33.70
2023-02-27T15:21:44.926Z,34.30
2023-02-27T15:24:40.603Z,35.30
2023-02-27T15:27:20.558Z,35.50
2023-02-27T15:29:59.086Z,34.60
2023-02-27T15:32:30.772Z,34.50
2023-02-27T15:35:01.045Z,34.60
2023-02-27T15:37:32.238Z,35.00
2023-02-27T15:40:01.036Z,35.70
2023-02-27T15:42:32.156Z,36.50
2023-02-27T15:44:59.871Z,37.30
2023-02-27T15:47:30.436Z,38.40
2023-02-27T15:50:07.217Z,39.00
2023-02-27T15:52:43.624Z,38.80
2023-02-27T15:55:15.002Z,37.80
2023-02-27T15:58:00.812Z,37.00
2023-02-27T16:00:30.876Z,37.10
2023-02-27T16:02:58.800Z,36.50
2023-02-27T16:05:35.443Z,36.50
2023-02-27T16:08:03.672Z,37.20
2023-02-27T16:10:41.997Z,37.40
2023-02-27T16:13:35.760Z,37.90
2023-02-27T16:16:05.888Z,37.70
2023-02-27T16:18:56.785Z,37.80
2023-02-27T16:21:26.161Z,37.90
2023-02-27T16:23:54.075Z,37.90
2023-02-27T16:26:27.977Z,38.20
2023-02-27T16:28:56.670Z,38.50
2023-02-27T16:31:25.356Z,38.40
2023-02-27T16:33:53.480Z,38.90
2023-02-27T16:36:25.589Z,38.90
2023-02-27T16:38:52.570Z,39.00
2023-02-27T16:41:21.537Z,39.40
2023-02-27T16:43:49.306Z,40.00
2023-02-27T16:46:21.671Z,40.40
2023-02-27T16:48:54.044Z,40.50
2023-02-27T16:51:28.035Z,40.70
2023-02-27T16:53:56.128Z,40.60
2023-02-27T16:56:37.251Z,40.40
2023-02-27T16:59:06.014Z,40.50
2023-02-27T17:01:34.233Z,41.00
2023-02-27T17:04:01.963Z,41.40
2023-02-27T17:06:30.152Z,41.90
2023-02-27T17:08:57.868Z,42.30
2023-02-27T17:11:24.747Z,42.60
2023-02-27T17:13:51.750Z,43.00
2023-02-27T17:16:18.627Z,43.10
2023-02-27T17:18:45.412Z,43.40
2023-02-27T17:21:12.303Z,43.80
2023-02-27T17:23:39.318Z,44.10
2023-02-27T17:26:06.155Z,44.20
2023-02-27T17:28:33.340Z,44.60
2023-02-27T17:31:00.193Z,44.70
2023-02-27T17:33:26.904Z,45.10
2023-02-27T17:36:05.237Z,45.40
2023-02-27T17:38:32.459Z,45.80
2023-02-27T17:40:59.259Z,45.90
2023-02-27T17:43:27.082Z,45.90
2023-02-27T17:45:53.973Z,46.40
2023-02-27T17:48:20.856Z,46.70
2023-02-27T17:50:47.689Z,46.90
2023-02-27T17:53:15.568Z,47.10
2023-02-27T17:55:42.401Z,47.50
2023-02-27T17:58:09.400Z,47.60
2023-02-27T18:00:36.310Z,47.80
2023-02-27T18:03:03.157Z,47.90
2023-02-27T18:05:30.106Z,48.00
2023-02-27T18:07:56.944Z,48.30
2023-02-27T18:10:23.806Z,48.70
2023-02-27T18:12:50.701Z,48.90
2023-02-27T18:15:18.190Z,48.90
2023-02-27T18:17:45.056Z,49.20
2023-02-27T18:20:12.376Z,49.50
2023-02-27T18:22:39.122Z,49.50
2023-02-27T18:25:07.153Z,49.60
2023-02-27T18:27:34.021Z,49.80
2023-02-27T18:30:02.738Z,49.90
2023-02-27T18:32:29.940Z,50.10
2023-02-27T18:34:56.877Z,50.10
2023-02-27T18:37:23.621Z,50.20
2023-02-27T18:39:50.429Z,50.30
2023-02-27T18:42:17.288Z,50.40
2023-02-27T18:44:44.254Z,50.50
2023-02-27T18:47:12.066Z,50.50
2023-02-27T18:49:38.889Z,50.80
2023-02-27T18:52:05.841Z,50.80
2023-02-27T18:54:32.652Z,50.80
2023-02-27T18:57:00.767Z,50.90
2023-02-27T18:59:27.596Z,51.10
2023-02-27T19:01:54.908Z,51.20
2023-02-27T19:04:21.686Z,51.30
2023-02-27T19:06:48.527Z,51.50
2023-02-27T19:09:20.408Z,51.50
2023-02-27T19:11:48.574Z,51.70
2023-02-27T19:14:16.263Z,51.80
2023-02-27T19:16:43.406Z,51.90
2023-02-27T19:19:10.951Z,52.00
2023-02-27T19:21:37.780Z,52.10
2023-02-27T19:24:04.899Z,52.30
2023-02-27T19:26:34.234Z,52.50
2023-02-27T19:29:01.450Z,52.70
2023-02-27T19:31:28.570Z,53.00
2023-02-27T19:33:55.840Z,53.30
2023-02-27T19:36:24.916Z,53.60
2023-02-27T19:38:52.644Z,53.70
2023-02-27T19:41:20.198Z,53.70
2023-02-27T19:43:48.536Z,53.80
2023-02-27T19:46:18.268Z,53.90
2023-02-27T19:48:46.013Z,54.00
2023-02-27T19:51:14.871Z,54.20
2023-02-27T19:53:43.189Z,54.40
2023-02-27T19:56:13.920Z,54.60
2023-02-27T19:58:41.029Z,54.70
2023-02-27T20:01:07.987Z,54.90
2023-02-27T20:03:35.865Z,54.90
2023-02-27T20:06:06.384Z,55.00
2023-02-27T20:08:34.297Z,55.00
2023-02-27T20:11:04.037Z,55.10
2023-02-27T20:13:31.395Z,55.20
2023-02-27T20:16:05.305Z,55.20
2023-02-27T20:18:33.179Z,55.10
2023-02-27T20:21:08.300Z,55.20
2023-02-27T20:23:37.797Z,55.30
2023-02-27T20:26:22.631Z,55.20
2023-02-27T20:28:52.152Z,55.30
2023-02-27T20:31:21.941Z,55.30
2023-02-27T20:33:49.400Z,55.40
2023-02-27T20:36:16.533Z,55.50
2023-02-27T20:38:43.828Z,55.60
2023-02-27T20:41:19.436Z,55.70
2023-02-27T20:43:46.618Z,55.60
2023-02-27T20:46:20.521Z,55.60
2023-02-27T20:48:47.608Z,55.70
2023-02-27T20:51:15.870Z,55.70
2023-02-27T20:53:44.574Z,55.90
2023-02-27T20:56:11.585Z,56.10
2023-02-27T20:58:39.235Z,56.20
2023-02-27T21:01:11.085Z,56.40
2023-02-27T21:03:39.744Z,56.60
2023-02-27T21:06:09.541Z,56.60
2023-02-27T21:08:37.587Z,56.70
2023-02-27T21:11:09.623Z,56.60
2023-02-27T21:13:37.114Z,56.70
2023-02-27T21:16:05.994Z,56.90
2023-02-27T21:18:34.379Z,57.10
2023-02-27T21:21:11.045Z,57.30
2023-02-27T21:23:41.044Z,57.50
2023-02-27T21:26:21.844Z,57.60
2023-02-27T21:29:05.185Z,57.90
2023-02-27T21:31:34.167Z,58.00
2023-02-27T21:34:02.945Z,58.30
2023-02-27T21:36:32.525Z,58.40
2023-02-27T21:39:02.056Z,58.40
2023-02-27T21:41:29.850Z,58.50
2023-02-27T21:44:02.056Z,58.50
2023-02-27T21:46:29.853Z,58.50
2023-02-27T21:48:57.034Z,58.60
2023-02-27T21:51:38.928Z,58.70
2023-02-27T21:54:07.239Z,58.80
2023-02-27T21:56:34.128Z,58.90
2023-02-27T21:59:02.058Z,59.00
2023-02-27T22:01:30.117Z,59.20
2023-02-27T22:03:57.619Z,59.20
2023-02-27T22:06:26.536Z,59.20
2023-02-27T22:08:58.618Z,59.20
2023-02-27T22:11:27.559Z,59.20
2023-02-27T22:13:54.777Z,59.20
2023-02-27T22:16:22.004Z,59.30
2023-02-27T22:18:49.242Z,59.30
2023-02-27T22:21:20.986Z,59.30
2023-02-27T22:23:48.617Z,59.40
2023-02-27T22:26:18.764Z,59.40
2023-02-27T22:28:45.754Z,59.50
2023-02-27T22:31:19.881Z,59.60
2023-02-27T22:33:48.782Z,59.80
2023-02-27T22:36:18.813Z,59.90
2023-02-27T22:38:45.826Z,60.00
2023-02-27T22:41:17.059Z,60.10
2023-02-27T22:43:47.539Z,60.10
2023-02-27T22:46:17.120Z,60.20
2023-02-27T22:48:44.258Z,60.20
2023-02-27T22:51:14.706Z,60.10
2023-02-27T22:53:43.028Z,60.10
2023-02-27T22:56:11.936Z,60.30
2023-02-27T22:58:39.902Z,60.40
2023-02-27T23:01:20.549Z,60.70
2023-02-27T23:03:49.317Z,60.80
2023-02-27T23:06:19.197Z,60.90
2023-02-27T23:08:46.037Z,61.00
2023-02-27T23:11:14.924Z,61.10
2023-02-27T23:13:41.905Z,61.30
2023-02-27T23:16:13.480Z,61.40
2023-02-27T23:18:41.726Z,61.50
2023-02-27T23:21:09.903Z,61.60
2023-02-27T23:23:37.132Z,61.50
2023-02-27T23:26:05.620Z,61.50
2023-02-27T23:28:34.146Z,61.50
2023-02-27T23:31:01.992Z,61.60
2023-02-27T23:33:29.948Z,61.60
2023-02-27T23:36:00.625Z,61.80
2023-02-27T23:38:28.145Z,61.70
2023-02-27T23:40:55.199Z,61.80
2023-02-27T23:43:22.874Z,62.00
2023-02-27T23:45:49.934Z,62.00
2023-02-27T23:48:16.835Z,62.00
2023-02-27T23:50:44.503Z,62.00
2023-02-27T23:53:13.397Z,61.90
2023-02-27T23:55:41.066Z,62.00
2023-02-27T23:58:10.080Z,62.10
